Time;durP1;ratioP1;P1;durP2;ratioP2;P2;SDS_P1;SDS_P2;PMS_P1;PMS_P2;Temp;Humidity;BMP_temperature;BMP_pressure;BME280_temperature;BME280_humidity;BME280_pressure;Samples;Min_cycle;Max_cycle;Signal;HPM_P1;HPM_P2
2024/01/17 00:01:35;;;;;;;18.43;8.50;;;;;;;;;;5036000;28;20183;-65
2024/01/17 00:04:01;;;;;;;13.93;8.33;;;;;;;;;;5054158;28;20401;-64
2024/01/17 00:06:27;;;;;;;32.27;19.53;;;;;;;;;;5053832;28;20420;-64
2024/01/17 00:08:53;;;;;;;22.70;14.07;;;;;;;;;;5053654;28;20239;-65
2024/01/17 00:11:19;;;;;;;16.43;11.77;;;;;;;;;;5053645;28;20178;-64
2024/01/17 00:13:45;;;;;;;26.43;11.40;;;;;;;;;;5054057;28;20649;-65
2024/01/17 00:16:11;;;;;;;18.87;10.23;;;;;;;;;;5053643;28;20178;-63
2024/01/17 00:18:37;;;;;;;17.37;9.13;;;;;;;;;;5035601;28;20209;-65
2024/01/17 00:21:03;;;;;;;18.40;9.67;;;;;;;;;;5053329;28;20217;-65
2024/01/17 00:23:29;;;;;;;13.70;8.80;;;;;;;;;;5053660;28;20205;-65
2024/01/17 00:25:55;;;;;;;18.37;9.33;;;;;;;;;;5035482;28;20425;-65
2024/01/17 00:28:21;;;;;;;16.40;9.40;;;;;;;;;;5053382;28;20249;-65
2024/01/17 00:30:47;;;;;;;18.97;9.93;;;;;;;;;;5053243;28;20194;-64
2024/01/17 00:33:12;;;;;;;18.47;9.37;;;;;;;;;;5053319;28;20178;-65
2024/01/17 00:35:39;;;;;;;18.67;9.93;;;;;;;;;;5035239;28;20271;-65
2024/01/17 00:38:05;;;;;;;19.77;10.50;;;;;;;;;;5035183;28;20353;-65
2024/01/17 00:40:31;;;;;;;18.43;11.37;;;;;;;;;;5053124;28;20423;-65
2024/01/17 00:42:57;;;;;;;16.23;9.60;;;;;;;;;;5052989;28;20415;-64
2024/01/17 00:45:23;;;;;;;17.43;9.07;;;;;;;;;;5035278;28;20174;-65
2024/01/17 00:47:49;;;;;;;18.20;9.10;;;;;;;;;;5053042;28;20262;-65
2024/01/17 00:50:15;;;;;;;15.17;8.57;;;;;;;;;;5052881;28;20202;-65
2024/01/17 00:52:41;;;;;;;15.23;9.20;;;;;;;;;;5052965;28;20181;-64
2024/01/17 00:55:07;;;;;;;15.90;9.40;;;;;;;;;;5052747;28;20397;-65
2024/01/17 00:57:33;;;;;;;15.57;9.30;;;;;;;;;;5052810;28;20234;-64
2024/01/17 00:59:59;;;;;;;14.13;9.07;;;;;;;;;;5052582;28;20472;-65
2024/01/17 01:02:25;;;;;;;19.23;9.40;;;;;;;;;;5052909;28;20566;-65
2024/01/17 01:04:51;;;;;;;18.33;8.87;;;;;;;;;;5053154;28;20643;-65
2024/01/17 01:07:17;;;;;;;16.53;9.10;;;;;;;;;;5052892;28;20178;-65
2024/01/17 01:09:43;;;;;;;16.73;9.50;;;;;;;;;;5052584;28;20202;-64
2024/01/17 01:12:09;;;;;;;17.17;9.67;;;;;;;;;;5053028;28;20412;-65
2024/01/17 01:14:35;;;;;;;17.77;8.87;;;;;;;;;;5034654;28;20496;-63
2024/01/17 01:17:01;;;;;;;18.37;9.73;;;;;;;;;;5052623;28;20570;-65
2024/01/17 01:19:27;;;;;;;18.23;9.40;;;;;;;;;;5052421;28;20701;-65
2024/01/17 01:21:53;;;;;;;20.63;11.33;;;;;;;;;;5052505;28;20163;-62
2024/01/17 01:24:19;;;;;;;16.27;10.83;;;;;;;;;;5034484;28;20183;-65
2024/01/17 01:26:45;;;;;;;16.03;9.63;;;;;;;;;;5052483;28;20179;-65
2024/01/17 01:29:11;;;;;;;18.83;9.80;;;;;;;;;;5035630;28;20438;-64
2024/01/17 01:31:37;;;;;;;20.00;10.77;;;;;;;;;;5053362;28;20185;-65
2024/01/17 01:34:03;;;;;;;23.43;10.73;;;;;;;;;;5052472;28;20664;-65
2024/01/17 01:36:29;;;;;;;15.60;9.83;;;;;;;;;;5035064;28;20535;-65
2024/01/17 01:38:55;;;;;;;23.57;11.93;;;;;;;;;;5052102;28;20672;-65
2024/01/17 01:41:20;;;;;;;22.67;13.40;;;;;;;;;;5052111;28;20554;-65
2024/01/17 01:43:46;;;;;;;18.67;11.70;;;;;;;;;;5052140;28;20185;-65
2024/01/17 01:46:15;;;;;;;19.53;10.50;;;;;;;;;;5052158;28;20174;-64
2024/01/17 01:48:41;;;;;;;15.43;9.17;;;;;;;;;;5052058;28;20252;-64
2024/01/17 01:51:07;;;;;;;15.50;9.90;;;;;;;;;;5052079;28;20452;-65
2024/01/17 01:53:34;;;;;;;16.00;10.03;;;;;;;;;;5052001;28;20921;-65
2024/01/17 01:56:01;;;;;;;16.43;9.40;;;;;;;;;;5034147;28;20421;-65
2024/01/17 01:58:28;;;;;;;18.10;10.33;;;;;;;;;;5052357;28;21026;-65
2024/01/17 02:00:55;;;;;;;17.90;9.73;;;;;;;;;;5033975;28;20528;-65
2024/01/17 02:03:21;;;;;;;17.73;9.80;;;;;;;;;;5052197;28;20405;-65
2024/01/17 02:05:48;;;;;;;14.13;8.63;;;;;;;;;;5052218;28;20440;-65
2024/01/17 02:08:14;;;;;;;18.07;9.13;;;;;;;;;;5051955;28;20479;-64
2024/01/17 02:10:40;;;;;;;14.50;8.90;;;;;;;;;;5033914;28;20440;-65
2024/01/17 02:13:06;;;;;;;12.87;8.23;;;;;;;;;;5033972;28;20444;-65
2024/01/17 02:15:32;;;;;;;15.40;8.17;;;;;;;;;;5055442;28;20487;-65
2024/01/17 02:17:58;;;;;;;14.13;8.07;;;;;;;;;;5037810;28;20495;-65
2024/01/17 02:20:24;;;;;;;18.63;9.77;;;;;;;;;;5055641;28;20263;-65
2024/01/17 02:22:50;;;;;;;16.70;9.23;;;;;;;;;;5055737;28;20187;-64
2024/01/17 02:25:16;;;;;;;16.30;8.40;;;;;;;;;;5055856;28;20256;-65
2024/01/17 02:27:42;;;;;;;12.03;8.33;;;;;;;;;;5055610;28;20316;-65
2024/01/17 02:30:08;;;;;;;14.80;8.03;;;;;;;;;;5055460;28;20210;-65
2024/01/17 02:32:35;;;;;;;24.10;10.47;;;;;;;;;;5055615;28;20191;-64
2024/01/17 02:35:02;;;;;;;11.67;8.40;;;;;;;;;;5055683;28;20420;-65
2024/01/17 02:37:28;;;;;;;12.47;7.63;;;;;;;;;;5037572;28;20417;-64
2024/01/17 02:39:53;;;;;;;16.90;10.87;;;;;;;;;;5055190;28;20471;-65
2024/01/17 02:42:20;;;;;;;14.73;8.57;;;;;;;;;;5055721;28;20177;-65
2024/01/17 02:44:46;;;;;;;13.30;7.83;;;;;;;;;;5055166;28;20437;-65
2024/01/17 02:47:12;;;;;;;18.37;9.60;;;;;;;;;;5055351;28;20221;-65
2024/01/17 02:49:38;;;;;;;11.20;7.90;;;;;;;;;;5055121;28;20436;-65
2024/01/17 02:52:05;;;;;;;20.60;10.07;;;;;;;;;;5055406;28;20409;-65
2024/01/17 02:54:31;;;;;;;15.37;8.30;;;;;;;;;;5055192;28;20202;-63
2024/01/17 02:56:57;;;;;;;10.70;8.07;;;;;;;;;;5055157;28;20409;-65
2024/01/17 02:59:23;;;;;;;16.93;9.47;;;;;;;;;;5055039;28;20847;-65
2024/01/17 03:01:50;;;;;;;18.13;8.73;;;;;;;;;;5055052;28;20262;-65
2024/01/17 03:04:16;;;;;;;16.20;8.80;;;;;;;;;;5055016;28;20261;-65
2024/01/17 03:06:43;;;;;;;18.00;9.37;;;;;;;;;;5055367;28;20506;-66
2024/01/17 03:09:10;;;;;;;14.30;8.63;;;;;;;;;;5055069;28;20182;-66
2024/01/17 03:11:36;;;;;;;14.50;8.47;;;;;;;;;;5037475;28;20421;-65
2024/01/17 03:14:03;;;;;;;19.70;10.27;;;;;;;;;;5037535;28;20478;-65
2024/01/17 03:16:29;;;;;;;21.33;9.57;;;;;;;;;;5055121;28;20417;-65
2024/01/17 03:18:55;;;;;;;13.80;8.90;;;;;;;;;;5037333;28;20456;-65
2024/01/17 03:21:21;;;;;;;14.50;9.00;;;;;;;;;;5036863;28;20187;-64
2024/01/17 03:23:47;;;;;;;14.67;8.83;;;;;;;;;;5054631;28;20405;-65
2024/01/17 03:26:13;;;;;;;15.47;8.70;;;;;;;;;;5036575;28;20421;-64
2024/01/17 03:28:39;;;;;;;14.17;8.67;;;;;;;;;;5054606;28;20424;-65
2024/01/17 03:31:05;;;;;;;13.43;9.07;;;;;;;;;;5054418;28;20203;-65
2024/01/17 03:33:31;;;;;;;12.73;8.30;;;;;;;;;;5036488;28;20487;-65
2024/01/17 03:35:57;;;;;;;18.07;9.73;;;;;;;;;;5054441;28;20189;-64
2024/01/17 03:38:25;;;;;;;17.57;9.03;;;;;;;;;;5036290;28;20198;-64
2024/01/17 03:40:55;;;;;;;14.17;9.17;;;;;;;;;;5054369;28;20463;-65
2024/01/17 03:43:20;;;;;;;16.30;8.87;;;;;;;;;;5054938;28;20529;-65
2024/01/17 03:45:46;;;;;;;15.73;9.20;;;;;;;;;;5036629;28;20397;-64
2024/01/17 03:48:12;;;;;;;12.77;9.20;;;;;;;;;;5054540;28;20185;-65
2024/01/17 03:50:38;;;;;;;13.67;8.43;;;;;;;;;;5054512;28;20700;-65
2024/01/17 03:53:04;;;;;;;14.03;8.60;;;;;;;;;;5054327;28;20678;-65
2024/01/17 03:55:30;;;;;;;22.23;11.07;;;;;;;;;;5036209;28;20209;-65
2024/01/17 03:57:56;;;;;;;22.73;12.83;;;;;;;;;;5054201;28;20188;-65
2024/01/17 04:00:22;;;;;;;22.00;12.10;;;;;;;;;;5036227;28;20532;-65
2024/01/17 04:02:48;;;;;;;26.03;14.63;;;;;;;;;;5035936;28;20424;-65
2024/01/17 04:05:17;;;;;;;31.17;16.37;;;;;;;;;;5035898;28;20173;-65
2024/01/17 04:07:43;;;;;;;18.03;11.77;;;;;;;;;;5054216;28;20177;-65
2024/01/17 04:10:09;;;;;;;19.47;10.53;;;;;;;;;;5036161;28;20814;-65
2024/01/17 04:12:35;;;;;;;20.73;12.20;;;;;;;;;;5053957;28;20633;-65
2024/01/17 04:15:01;;;;;;;25.30;14.90;;;;;;;;;;5053793;28;20306;-65
2024/01/17 04:17:27;;;;;;;24.00;13.03;;;;;;;;;;5035788;28;20636;-65
2024/01/17 04:19:53;;;;;;;33.37;17.50;;;;;;;;;;5053480;28;20481;-64
2024/01/17 04:22:19;;;;;;;20.33;11.53;;;;;;;;;;5053784;28;20198;-65
2024/01/17 04:24:45;;;;;;;19.80;12.47;;;;;;;;;;5035695;28;20732;-65
2024/01/17 04:27:11;;;;;;;20.93;11.03;;;;;;;;;;5036069;28;20269;-65
2024/01/17 04:29:37;;;;;;;35.37;18.87;;;;;;;;;;5054470;28;20252;-64
2024/01/17 04:32:03;;;;;;;20.50;11.50;;;;;;;;;;5054805;28;20508;-65
2024/01/17 04:34:29;;;;;;;20.47;12.30;;;;;;;;;;5053943;28;20183;-65
2024/01/17 04:36:55;;;;;;;51.87;25.20;;;;;;;;;;5052591;28;20504;-65
2024/01/17 04:39:21;;;;;;;28.13;14.27;;;;;;;;;;5053089;28;20218;-65
2024/01/17 04:41:47;;;;;;;54.60;22.50;;;;;;;;;;5053629;28;20197;-65
2024/01/17 04:44:13;;;;;;;106.10;44.50;;;;;;;;;;5053115;28;20304;-65
2024/01/17 04:46:39;;;;;;;43.07;21.37;;;;;;;;;;5053473;28;20893;-64
2024/01/17 04:49:06;;;;;;;54.33;26.03;;;;;;;;;;5034954;28;20608;-66
2024/01/17 04:51:32;;;;;;;65.27;28.30;;;;;;;;;;5035038;28;20231;-65
2024/01/17 04:53:58;;;;;;;47.63;23.87;;;;;;;;;;5052865;28;20400;-64
2024/01/17 04:56:24;;;;;;;51.53;25.07;;;;;;;;;;5052941;28;20258;-65
2024/01/17 04:58:50;;;;;;;21.03;11.40;;;;;;;;;;5034873;28;20535;-65
2024/01/17 05:01:16;;;;;;;15.57;10.37;;;;;;;;;;5052751;28;20429;-64
2024/01/17 05:03:45;;;;;;;19.17;11.20;;;;;;;;;;5052861;28;20178;-65
2024/01/17 05:06:11;;;;;;;17.80;9.50;;;;;;;;;;5052752;28;20171;-65
2024/01/17 05:08:37;;;;;;;19.00;9.70;;;;;;;;;;5052780;28;20916;-65
2024/01/17 05:11:03;;;;;;;18.90;10.23;;;;;;;;;;5052679;28;20440;-64
2024/01/17 05:13:29;;;;;;;17.47;10.20;;;;;;;;;;5052869;28;20698;-65
2024/01/17 05:15:55;;;;;;;14.00;9.33;;;;;;;;;;5052835;28;20908;-65
2024/01/17 05:18:21;;;;;;;17.33;10.40;;;;;;;;;;5052453;28;20457;-65
2024/01/17 05:20:47;;;;;;;15.83;9.20;;;;;;;;;;5052301;28;20448;-65
2024/01/17 05:23:13;;;;;;;16.53;9.97;;;;;;;;;;5052601;28;20261;-65
2024/01/17 05:25:39;;;;;;;15.97;10.33;;;;;;;;;;5052456;28;20444;-65
2024/01/17 05:28:06;;;;;;;19.83;10.57;;;;;;;;;;5052958;28;20452;-65
2024/01/17 05:30:32;;;;;;;13.30;9.47;;;;;;;;;;5053276;28;20838;-69
2024/01/17 05:32:58;;;;;;;14.43;9.30;;;;;;;;;;5052689;28;20416;-69
2024/01/17 05:35:24;;;;;;;21.20;9.90;;;;;;;;;;5052478;28;20408;-69
2024/01/17 05:37:51;;;;;;;16.37;10.47;;;;;;;;;;5052634;28;20181;-69
2024/01/17 05:40:17;;;;;;;18.77;11.13;;;;;;;;;;5052293;28;20425;-69
2024/01/17 05:42:43;;;;;;;16.70;9.87;;;;;;;;;;5052593;28;20420;-69
2024/01/17 05:45:09;;;;;;;12.73;10.00;;;;;;;;;;5052648;28;20892;-69
2024/01/17 05:47:36;;;;;;;17.20;10.07;;;;;;;;;;5052192;28;20904;-69
2024/01/17 05:50:03;;;;;;;15.63;9.80;;;;;;;;;;5052632;28;20425;-69
2024/01/17 05:52:30;;;;;;;16.60;10.20;;;;;;;;;;5052601;28;20413;-69
2024/01/17 05:54:55;;;;;;;16.97;11.00;;;;;;;;;;5052389;28;20992;-68
2024/01/17 05:57:21;;;;;;;19.70;10.83;;;;;;;;;;5061746;28;20409;-69
2024/01/17 05:59:47;;;;;;;17.47;10.57;;;;;;;;;;5064046;28;20237;-69
2024/01/17 06:02:13;;;;;;;16.93;11.13;;;;;;;;;;5065408;28;20185;-67
2024/01/17 06:04:40;;;;;;;16.77;10.17;;;;;;;;;;5065883;28;20182;-68
2024/01/17 06:07:06;;;;;;;17.77;10.97;;;;;;;;;;5065103;28;20183;-69
2024/01/17 06:09:32;;;;;;;18.50;10.40;;;;;;;;;;5048074;28;20507;-69
2024/01/17 06:11:57;;;;;;;21.23;11.43;;;;;;;;;;5065012;28;20185;-69
2024/01/17 06:14:23;;;;;;;17.70;10.93;;;;;;;;;;5038177;28;20789;-70
2024/01/17 06:16:49;;;;;;;23.00;10.97;;;;;;;;;;5054915;28;20571;-69
2024/01/17 06:19:16;;;;;;;15.87;9.93;;;;;;;;;;5053268;28;20214;-69
2024/01/17 06:21:42;;;;;;;21.07;12.77;;;;;;;;;;5035821;28;20171;-69
2024/01/17 06:24:08;;;;;;;19.73;10.20;;;;;;;;;;5054729;28;20835;-68
2024/01/17 06:26:34;;;;;;;16.17;10.50;;;;;;;;;;5037776;28;20677;-69
2024/01/17 06:29:00;;;;;;;16.47;10.70;;;;;;;;;;5034657;28;20565;-69
2024/01/17 06:31:26;;;;;;;16.97;11.37;;;;;;;;;;5052069;28;20408;-69
2024/01/17 06:33:52;;;;;;;17.60;11.17;;;;;;;;;;5051941;28;20185;-68
2024/01/17 06:36:18;;;;;;;23.77;14.57;;;;;;;;;;5051936;28;20182;-68
2024/01/17 06:38:44;;;;;;;32.43;15.03;;;;;;;;;;5052546;28;20472;-69
2024/01/17 06:41:10;;;;;;;45.00;21.13;;;;;;;;;;5052311;28;20256;-68
2024/01/17 06:43:36;;;;;;;26.20;14.93;;;;;;;;;;5052213;28;20413;-68
2024/01/17 06:46:02;;;;;;;17.77;11.87;;;;;;;;;;5051943;28;20170;-68
2024/01/17 06:48:28;;;;;;;16.87;10.50;;;;;;;;;;5052169;28;20264;-69
2024/01/17 06:50:54;;;;;;;14.30;10.17;;;;;;;;;;5033927;28;20565;-68
2024/01/17 06:53:21;;;;;;;16.90;9.97;;;;;;;;;;5051681;28;20409;-68
2024/01/17 06:55:47;;;;;;;27.20;14.47;;;;;;;;;;5051985;28;20193;-69
2024/01/17 06:58:13;;;;;;;22.50;13.67;;;;;;;;;;5051772;28;21080;-69
2024/01/17 07:00:40;;;;;;;20.13;13.00;;;;;;;;;;5035788;28;20478;-68
2024/01/17 07:03:06;;;;;;;18.70;10.87;;;;;;;;;;5055387;28;20628;-68
2024/01/17 07:05:32;;;;;;;16.03;9.97;;;;;;;;;;5055294;28;20499;-69
2024/01/17 07:07:58;;;;;;;20.60;11.23;;;;;;;;;;5055146;28;20445;-69
2024/01/17 07:10:24;;;;;;;17.63;11.27;;;;;;;;;;5055563;28;20195;-68
2024/01/17 07:12:50;;;;;;;16.83;10.03;;;;;;;;;;5055155;28;20179;-68
2024/01/17 07:15:17;;;;;;;17.53;10.63;;;;;;;;;;5055471;28;20210;-69
2024/01/17 07:17:43;;;;;;;13.53;9.80;;;;;;;;;;5054963;28;20437;-69
2024/01/17 07:20:10;;;;;;;16.27;10.13;;;;;;;;;;5054719;28;20484;-68
2024/01/17 07:22:41;;;;;;;20.43;11.57;;;;;;;;;;5055069;28;20185;-68
2024/01/17 07:25:08;;;;;;;18.27;10.70;;;;;;;;;;5055219;28;20394;-68
2024/01/17 07:27:34;;;;;;;14.63;9.10;;;;;;;;;;5037280;28;20508;-68
2024/01/17 07:29:59;;;;;;;16.27;9.77;;;;;;;;;;5055842;28;20465;-68
2024/01/17 07:32:25;;;;;;;17.47;9.57;;;;;;;;;;5059769;28;20194;-68
2024/01/17 07:34:52;;;;;;;37.07;17.80;;;;;;;;;;5055019;28;20240;-68
2024/01/17 07:37:18;;;;;;;28.93;15.30;;;;;;;;;;5054824;28;20416;-69
2024/01/17 07:39:44;;;;;;;35.90;19.00;;;;;;;;;;5054537;28;20468;-68
2024/01/17 07:42:10;;;;;;;27.57;15.63;;;;;;;;;;5054782;28;20706;-68
2024/01/17 07:44:36;;;;;;;20.73;10.63;;;;;;;;;;5054611;28;20175;-69
2024/01/17 07:47:02;;;;;;;25.73;15.17;;;;;;;;;;5054470;28;20609;-69
2024/01/17 07:49:28;;;;;;;42.07;26.07;;;;;;;;;;5054297;28;20198;-69
2024/01/17 07:51:54;;;;;;;15.57;10.77;;;;;;;;;;5054588;28;20420;-67
2024/01/17 07:54:20;;;;;;;24.80;16.60;;;;;;;;;;5036433;28;20208;-67
2024/01/17 07:56:46;;;;;;;16.13;10.10;;;;;;;;;;5054412;28;20664;-67
2024/01/17 07:59:12;;;;;;;22.53;16.60;;;;;;;;;;5054541;28;20493;-67
2024/01/17 08:01:39;;;;;;;17.77;10.80;;;;;;;;;;5054303;28;20178;-69
2024/01/17 08:04:05;;;;;;;24.63;13.33;;;;;;;;;;5054111;28;20186;-69
2024/01/17 08:06:31;;;;;;;18.27;11.53;;;;;;;;;;5055268;28;20401;-68
2024/01/17 08:08:59;;;;;;;18.00;9.67;;;;;;;;;;5059404;28;20174;-67
2024/01/17 08:11:25;;;;;;;16.60;9.47;;;;;;;;;;5060640;28;20206;-68
2024/01/17 08:13:51;;;;;;;15.10;9.77;;;;;;;;;;5061849;28;20459;-67
2024/01/17 08:16:17;;;;;;;24.90;15.50;;;;;;;;;;5057009;28;20179;-66
2024/01/17 08:18:42;;;;;;;21.33;12.63;;;;;;;;;;5055770;28;20210;-67
2024/01/17 08:21:08;;;;;;;22.67;13.53;;;;;;;;;;5055120;28;20214;-66
2024/01/17 08:23:36;;;;;;;14.23;10.47;;;;;;;;;;5054790;28;20178;-66
2024/01/17 08:26:02;;;;;;;16.90;10.43;;;;;;;;;;5036274;28;20244;-67
2024/01/17 08:28:28;;;;;;;20.60;12.67;;;;;;;;;;5054088;28;20878;-68
2024/01/17 08:30:54;;;;;;;21.07;11.63;;;;;;;;;;5053496;28;20934;-70
2024/01/17 08:33:20;;;;;;;25.97;12.83;;;;;;;;;;5035821;28;20542;-68
2024/01/17 08:35:47;;;;;;;17.07;9.90;;;;;;;;;;5053496;28;20410;-66
2024/01/17 08:38:13;;;;;;;23.53;11.50;;;;;;;;;;5053642;28;20433;-67
2024/01/17 08:40:39;;;;;;;16.80;9.03;;;;;;;;;;5053276;28;20530;-68
2024/01/17 08:43:05;;;;;;;16.47;10.33;;;;;;;;;;5053479;28;20409;-68
2024/01/17 08:45:31;;;;;;;16.77;10.20;;;;;;;;;;5053352;28;20175;-67
2024/01/17 08:47:57;;;;;;;16.47;10.57;;;;;;;;;;5053226;28;20175;-66
2024/01/17 08:50:23;;;;;;;16.33;9.17;;;;;;;;;;5054243;28;20197;-68
2024/01/17 08:52:49;;;;;;;17.00;9.87;;;;;;;;;;5053423;28;20170;-68
2024/01/17 08:55:15;;;;;;;12.93;9.10;;;;;;;;;;5053560;28;20402;-67
2024/01/17 08:57:41;;;;;;;18.30;9.57;;;;;;;;;;5053442;28;20186;-66
2024/01/17 09:00:08;;;;;;;15.63;10.87;;;;;;;;;;5053175;28;20210;-67
2024/01/17 09:02:34;;;;;;;14.97;9.03;;;;;;;;;;5035603;28;20551;-68
2024/01/17 09:05:00;;;;;;;19.57;8.60;;;;;;;;;;5053552;28;20459;-64
2024/01/17 09:07:26;;;;;;;19.00;9.83;;;;;;;;;;5053868;28;20402;-65
2024/01/17 09:09:52;;;;;;;16.07;9.13;;;;;;;;;;5053364;28;20440;-65
2024/01/17 09:12:19;;;;;;;14.07;9.40;;;;;;;;;;5053612;28;20208;-67
2024/01/17 09:14:45;;;;;;;21.33;12.00;;;;;;;;;;5053300;28;20178;-66
2024/01/17 09:17:11;;;;;;;25.57;14.40;;;;;;;;;;5034932;28;20416;-67
2024/01/17 09:19:37;;;;;;;21.63;13.37;;;;;;;;;;5052587;28;20221;-66
2024/01/17 09:22:04;;;;;;;20.37;10.83;;;;;;;;;;5035483;28;20425;-67
2024/01/17 09:24:30;;;;;;;14.33;8.53;;;;;;;;;;5052373;28;20420;-67
2024/01/17 09:26:56;;;;;;;15.90;10.77;;;;;;;;;;5052579;28;20821;-68
2024/01/17 09:29:22;;;;;;;15.93;8.33;;;;;;;;;;5052585;28;20575;-66
2024/01/17 09:31:48;;;;;;;14.63;8.67;;;;;;;;;;5052981;28;20178;-67
2024/01/17 09:34:14;;;;;;;18.57;10.90;;;;;;;;;;5034618;28;20198;-68
2024/01/17 09:36:40;;;;;;;21.73;12.80;;;;;;;;;;5053023;28;20488;-68
2024/01/17 09:39:06;;;;;;;20.70;11.23;;;;;;;;;;5034413;28;20921;-68
2024/01/17 09:41:32;;;;;;;26.53;19.53;;;;;;;;;;5052616;28;20186;-68
2024/01/17 09:43:58;;;;;;;14.90;11.63;;;;;;;;;;5052401;28;20223;-66
2024/01/17 09:46:24;;;;;;;14.50;7.83;;;;;;;;;;5052813;28;20488;-66
2024/01/17 09:48:50;;;;;;;14.87;9.13;;;;;;;;;;5052373;28;20905;-67
2024/01/17 09:51:16;;;;;;;12.97;8.30;;;;;;;;;;5034538;28;20475;-67
2024/01/17 09:53:45;;;;;;;14.03;8.53;;;;;;;;;;5034570;28;20206;-64
2024/01/17 09:56:12;;;;;;;15.30;8.47;;;;;;;;;;5053146;28;20781;-67
2024/01/17 09:58:38;;;;;;;18.63;7.97;;;;;;;;;;5052454;28;20452;-66
2024/01/17 10:01:05;;;;;;;16.83;8.23;;;;;;;;;;5052484;28;20543;-66
2024/01/17 10:03:31;;;;;;;12.80;8.53;;;;;;;;;;5034782;28;20425;-66
2024/01/17 10:05:57;;;;;;;12.53;9.20;;;;;;;;;;5034428;28;20436;-67
2024/01/17 10:08:24;;;;;;;17.63;8.97;;;;;;;;;;5052595;28;20420;-65
2024/01/17 10:10:50;;;;;;;20.07;9.33;;;;;;;;;;5052326;28;20440;-65
2024/01/17 10:13:16;;;;;;;15.60;9.07;;;;;;;;;;5052568;28;20417;-66
2024/01/17 10:15:42;;;;;;;20.23;8.40;;;;;;;;;;5052182;28;20206;-66
2024/01/17 10:18:09;;;;;;;14.07;7.83;;;;;;;;;;5034152;28;20424;-67
2024/01/17 10:20:35;;;;;;;13.40;8.20;;;;;;;;;;5051884;28;20453;-66
2024/01/17 10:23:03;;;;;;;12.83;7.67;;;;;;;;;;5034238;28;20485;-66
2024/01/17 10:25:36;;;;;;;12.00;7.60;;;;;;;;;;5052573;28;20261;-66
2024/01/17 10:28:02;;;;;;;12.90;7.97;;;;;;;;;;5053242;28;20468;-67
2024/01/17 10:30:29;;;;;;;14.47;8.37;;;;;;;;;;5052596;28;20453;-65
2024/01/17 10:32:56;;;;;;;15.87;8.60;;;;;;;;;;5034796;28;20182;-67
2024/01/17 10:35:23;;;;;;;15.07;8.17;;;;;;;;;;5054257;28;20413;-67
2024/01/17 10:37:51;;;;;;;16.57;9.03;;;;;;;;;;5056655;28;20424;-66
2024/01/17 10:40:18;;;;;;;12.30;8.20;;;;;;;;;;5056894;28;20460;-66
2024/01/17 10:42:44;;;;;;;14.57;9.17;;;;;;;;;;5056431;28;20179;-67
2024/01/17 10:45:20;;;;;;;15.30;8.87;;;;;;;;;;5057537;28;20435;-66
2024/01/17 10:47:46;;;;;;;18.37;10.97;;;;;;;;;;5038707;28;20278;-67
2024/01/17 10:50:13;;;;;;;25.10;11.83;;;;;;;;;;5056443;28;20455;-62
2024/01/17 10:52:41;;;;;;;19.37;11.43;;;;;;;;;;5055845;28;20411;-62
2024/01/17 10:55:10;;;;;;;21.43;15.47;;;;;;;;;;5055935;28;20602;-61
2024/01/17 10:57:39;;;;;;;15.80;7.60;;;;;;;;;;5056152;28;20548;-62
2024/01/17 11:00:14;;;;;;;17.47;8.80;;;;;;;;;;5056098;28;20351;-61
2024/01/17 11:02:41;;;;;;;23.33;10.23;;;;;;;;;;5055791;28;20541;-62
2024/01/17 11:05:12;;;;;;;21.77;11.50;;;;;;;;;;5038037;28;20494;-62
2024/01/17 11:07:39;;;;;;;42.10;15.73;;;;;;;;;;5055765;28;20390;-62
2024/01/17 11:10:07;;;;;;;33.10;13.10;;;;;;;;;;5055709;28;20432;-62
2024/01/17 11:12:34;;;;;;;21.17;10.63;;;;;;;;;;5055476;28;20232;-62
2024/01/17 11:15:01;;;;;;;18.67;11.07;;;;;;;;;;5037226;28;20420;-62
2024/01/17 11:17:28;;;;;;;17.80;10.07;;;;;;;;;;5055484;28;20706;-61
2024/01/17 11:19:55;;;;;;;22.30;9.13;;;;;;;;;;5054902;28;20214;-61
2024/01/17 11:22:22;;;;;;;13.67;8.67;;;;;;;;;;5055415;28;20185;-62
2024/01/17 11:24:51;;;;;;;18.90;8.93;;;;;;;;;;5037547;28;20182;-61
2024/01/17 11:27:23;;;;;;;21.07;11.70;;;;;;;;;;5037281;28;20174;-61
2024/01/17 11:29:55;;;;;;;17.40;8.80;;;;;;;;;;5055768;28;20205;-62
2024/01/17 11:32:40;;;;;;;14.60;9.50;;;;;;;;;;5037206;28;20304;-62
2024/01/17 11:35:06;;;;;;;17.60;8.90;;;;;;;;;;5037243;28;20209;-62
2024/01/17 11:37:38;;;;;;;20.20;9.97;;;;;;;;;;5037084;28;20194;-62
2024/01/17 11:40:04;;;;;;;21.30;9.83;;;;;;;;;;5054748;28;20206;-61
2024/01/17 11:42:31;;;;;;;18.30;10.07;;;;;;;;;;5055134;28;20413;-62
2024/01/17 11:44:58;;;;;;;18.47;8.93;;;;;;;;;;5036661;28;20265;-62
2024/01/17 11:47:24;;;;;;;17.53;9.00;;;;;;;;;;5054548;28;20467;-61
2024/01/17 11:49:54;;;;;;;13.60;9.13;;;;;;;;;;5054843;28;20202;-64
2024/01/17 11:54:53;;;;;;;14.37;9.13;;;;;;;;;;5077724;28;20292;-73
2024/01/17 11:57:19;;;;;;;17.03;10.10;;;;;;;;;;5089217;28;20176;-72
2024/01/17 11:59:45;;;;;;;15.50;9.63;;;;;;;;;;5070918;28;20206;-70
2024/01/17 12:02:31;;;;;;;12.80;9.13;;;;;;;;;;5088104;28;20173;-72
2024/01/17 12:04:57;;;;;;;19.70;8.80;;;;;;;;;;5069269;28;20178;-72
2024/01/17 12:07:23;;;;;;;15.63;9.70;;;;;;;;;;5059974;28;20201;-72
2024/01/17 12:09:51;;;;;;;16.93;11.10;;;;;;;;;;5056240;28;20181;-72
2024/01/17 12:12:22;;;;;;;19.17;9.23;;;;;;;;;;5038194;28;20183;-71
2024/01/17 12:14:48;;;;;;;14.57;9.13;;;;;;;;;;5038263;28;20206;-71
2024/01/17 12:17:14;;;;;;;18.00;10.60;;;;;;;;;;5037517;28;20190;-71
2024/01/17 12:19:40;;;;;;;12.67;8.77;;;;;;;;;;5055145;28;20206;-72
2024/01/17 12:22:08;;;;;;;15.40;9.50;;;;;;;;;;5055359;28;20722;-74
2024/01/17 12:24:34;;;;;;;20.47;10.03;;;;;;;;;;5056049;28;20186;-74
2024/01/17 12:27:00;;;;;;;14.60;8.60;;;;;;;;;;5055746;28;20180;-69
2024/01/17 12:29:26;;;;;;;15.27;10.60;;;;;;;;;;5055876;28;20217;-71
2024/01/17 12:31:52;;;;;;;44.40;27.47;;;;;;;;;;5038936;28;20183;-70
2024/01/17 12:34:18;;;;;;;27.30;14.87;;;;;;;;;;5037471;28;20202;-71
2024/01/17 12:36:44;;;;;;;15.40;9.60;;;;;;;;;;5037620;28;20252;-69
2024/01/17 12:39:10;;;;;;;13.80;9.27;;;;;;;;;;5037343;28;20206;-68
2024/01/17 12:41:36;;;;;;;19.90;12.20;;;;;;;;;;5055987;28;20308;-69
2024/01/17 12:44:03;;;;;;;14.13;10.13;;;;;;;;;;5055049;28;20229;-69
2024/01/17 12:46:29;;;;;;;20.00;10.53;;;;;;;;;;5037450;28;20225;-69
2024/01/17 12:48:56;;;;;;;22.43;12.53;;;;;;;;;;5054937;28;20182;-71
2024/01/17 12:51:23;;;;;;;21.33;9.90;;;;;;;;;;5037065;28;20667;-69
2024/01/17 12:53:49;;;;;;;20.33;10.60;;;;;;;;;;5054711;28;20210;-70
2024/01/17 12:56:16;;;;;;;14.47;10.60;;;;;;;;;;5055254;28;20304;-69
2024/01/17 12:58:42;;;;;;;17.13;9.50;;;;;;;;;;5056741;28;20680;-70
2024/01/17 13:01:08;;;;;;;17.63;10.20;;;;;;;;;;5038135;28;20183;-71
2024/01/17 13:03:34;;;;;;;18.20;10.03;;;;;;;;;;5055311;28;20244;-71
2024/01/17 13:06:05;;;;;;;22.63;12.97;;;;;;;;;;5037658;28;20178;-70
2024/01/17 13:08:31;;;;;;;21.67;11.87;;;;;;;;;;5055071;28;20551;-70
2024/01/17 13:10:57;;;;;;;20.47;11.90;;;;;;;;;;5055415;28;20410;-70
2024/01/17 13:13:24;;;;;;;25.80;14.40;;;;;;;;;;5054400;28;20429;-71
2024/01/17 13:15:59;;;;;;;35.70;14.70;;;;;;;;;;5037168;28;20409;-69
2024/01/17 13:18:25;;;;;;;31.80;14.03;;;;;;;;;;5054955;28;20489;-69
2024/01/17 13:20:55;;;;;;;20.83;12.10;;;;;;;;;;5054987;28;20178;-70
2024/01/17 13:23:21;;;;;;;18.57;11.50;;;;;;;;;;5036921;28;20198;-71
2024/01/17 13:25:49;;;;;;;14.67;10.37;;;;;;;;;;5054782;28;20257;-71
2024/01/17 13:28:16;;;;;;;14.17;10.40;;;;;;;;;;5055687;28;20253;-71
2024/01/17 13:30:42;;;;;;;21.67;12.20;;;;;;;;;;5057228;28;20175;-72
2024/01/17 13:33:09;;;;;;;19.73;11.80;;;;;;;;;;5036573;28;20436;-69
2024/01/17 13:35:36;;;;;;;14.60;11.50;;;;;;;;;;5054184;28;20409;-68
2024/01/17 13:38:02;;;;;;;19.10;11.87;;;;;;;;;;5054431;28;20179;-71
2024/01/17 13:40:29;;;;;;;16.87;11.77;;;;;;;;;;5035895;28;20464;-69
2024/01/17 13:42:55;;;;;;;19.87;11.90;;;;;;;;;;5053508;28;20428;-68
2024/01/17 13:45:22;;;;;;;19.50;12.17;;;;;;;;;;5053649;28;20492;-68
2024/01/17 13:47:48;;;;;;;19.57;12.40;;;;;;;;;;5035910;28;20424;-68
2024/01/17 13:50:21;;;;;;;19.23;12.10;;;;;;;;;;5054172;28;20414;-68
2024/01/17 13:52:50;;;;;;;21.63;12.87;;;;;;;;;;5036234;28;20276;-68
2024/01/17 13:55:17;;;;;;;18.90;12.60;;;;;;;;;;5054043;28;20377;-68
2024/01/17 13:57:43;;;;;;;18.73;12.13;;;;;;;;;;5035733;28;20469;-68
2024/01/17 14:00:10;;;;;;;19.03;12.33;;;;;;;;;;5053395;28;20496;-68
2024/01/17 14:02:36;;;;;;;20.13;12.90;;;;;;;;;;5035482;28;20252;-68
2024/01/17 14:05:02;;;;;;;20.87;12.63;;;;;;;;;;5053825;28;20413;-69
2024/01/17 14:07:28;;;;;;;18.40;13.07;;;;;;;;;;5053410;28;20178;-69
2024/01/17 14:09:54;;;;;;;23.03;12.87;;;;;;;;;;5036522;28;20427;-70
2024/01/17 14:12:20;;;;;;;20.37;12.57;;;;;;;;;;5057354;28;20417;-70
2024/01/17 14:14:46;;;;;;;21.90;13.53;;;;;;;;;;5057677;28;20182;-70
2024/01/17 14:17:13;;;;;;;25.10;13.83;;;;;;;;;;5057290;28;20320;-69
2024/01/17 14:19:39;;;;;;;23.67;13.67;;;;;;;;;;5058746;28;20502;-72
2024/01/17 14:22:05;;;;;;;21.63;14.13;;;;;;;;;;5064134;28;20409;-71